Time;durP1;ratioP1;P1;durP2;ratioP2;P2;SDS_P1;SDS_P2;PMS_P1;PMS_P2;Temp;Humidity;BMP_temperature;BMP_pressure;BME280_temperature;BME280_humidity;BME280_pressure;Samples;Min_cycle;Max_cycle;Signal;HPM_P1;HPM_P2
2022/08/20 00:00:57;;;;;;;;;;;;;;;;;;5046131;28;19913;-77
2022/08/20 00:03:43;;;;;;;;;;;;;;;;;;5044554;28;19919;-79
2022/08/20 00:06:30;;;;;;;;;;;;;;;;;;5045439;28;19950;-79
2022/08/20 00:09:16;;;;;;;;;;;;;;;;;;5041836;28;19912;-79
2022/08/20 00:12:03;;;;;;;;;;;;;;;;;;5044643;28;19931;-76
2022/08/20 00:14:49;;;;;;;;;;;;;;;;;;5046502;28;19923;-80
2022/08/20 00:17:36;;;;;;;;;;;;;;;;;;5045009;28;19924;-77
2022/08/20 00:20:22;;;;;;;;;;;;;;;;;;5044369;28;19920;-78
2022/08/20 00:23:09;;;;;;;;;;;;;;;;;;5045249;28;19913;-78
2022/08/20 00:25:55;;;;;;;;;;;;;;;;;;5038978;28;19916;-78
2022/08/20 00:28:42;;;;;;;;;;;;;;;;;;5043964;28;19917;-79
2022/08/20 00:31:28;;;;;;;;;;;;;;;;;;5045305;28;20391;-78
2022/08/20 00:34:15;;;;;;;;;;;;;;;;;;5045908;28;19991;-81
2022/08/20 00:37:01;;;;;;;;;;;;;;;;;;5026889;28;19913;-80
2022/08/20 00:39:48;;;;;;;;;;;;;;;;;;5047343;28;19920;-81
2022/08/20 00:42:34;;;;;;;;;;;;;;;;;;5041229;28;19909;-81
2022/08/20 00:45:21;;;;;;;;;;;;;;;;;;5042560;28;19909;-82
2022/08/20 00:48:07;;;;;;;;;;;;;;;;;;5031680;28;19913;-81
2022/08/20 00:50:53;;;;;;;;;;;;;;;;;;5043241;28;19923;-80
2022/08/20 00:53:40;;;;;;;;;;;;;;;;;;5031290;28;19940;-80
2022/08/20 00:56:27;;;;;;;;;;;;;;;;;;5047261;28;19939;-78
2022/08/20 00:59:13;;;;;;;;;;;;;;;;;;5043941;28;19913;-78
2022/08/20 01:02:00;;;;;;;;;;;;;;;;;;5043522;28;20344;-78
2022/08/20 01:04:50;;;;;;;;;;;;;;;;;;5043388;28;19916;-78
2022/08/20 01:07:36;;;;;;;;;;;;;;;;;;5038891;28;19920;-78
2022/08/20 01:10:23;;;;;;;;;;;;;;;;;;5044200;28;19908;-79
2022/08/20 01:13:09;;;;;;;;;;;;;;;;;;5043244;28;19925;-79
2022/08/20 01:15:56;;;;;;;;;;;;;;;;;;5046491;28;19939;-77
2022/08/20 01:18:42;;;;;;;;;;;;;;;;;;5042964;28;20381;-78
2022/08/20 01:21:32;;;;;;;;;;;;;;;;;;5044404;28;20031;-77
2022/08/20 01:24:19;;;;;;;;;;;;;;;;;;5038047;28;19923;-78
2022/08/20 01:27:06;;;;;;;;;;;;;;;;;;5040810;28;19947;-77
2022/08/20 01:29:52;;;;;;;;;;;;;;;;;;5042843;28;19908;-77
2022/08/20 01:32:39;;;;;;;;;;;;;;;;;;5046240;28;20299;-78
2022/08/20 01:35:25;;;;;;;;;;;;;;;;;;5045266;28;19932;-79
2022/08/20 01:38:12;;;;;;;;;;;;;;;;;;5046380;28;19912;-79
2022/08/20 01:40:58;;;;;;;;;;;;;;;;;;5047777;28;19919;-80
2022/08/20 01:43:45;;;;;;;;;;;;;;;;;;5044132;28;19913;-76
2022/08/20 01:46:31;;;;;;;;;;;;;;;;;;5044102;28;20307;-77
2022/08/20 01:49:18;;;;;;;;;;;;;;;;;;5044111;28;19909;-79
2022/08/20 01:52:06;;;;;;;;;;;;;;;;;;5047077;28;19915;-79
2022/08/20 01:54:52;;;;;;;;;;;;;;;;;;5044404;28;19925;-79
2022/08/20 01:57:39;;;;;;;;;;;;;;;;;;5045932;28;19919;-78
2022/08/20 02:00:25;;;;;;;;;;;;;;;;;;5046208;28;19920;-78
2022/08/20 02:03:12;;;;;;;;;;;;;;;;;;5045926;28;20284;-78
2022/08/20 02:05:58;;;;;;;;;;;;;;;;;;5046174;28;19920;-77
2022/08/20 02:08:45;;;;;;;;;;;;;;;;;;5027107;28;19909;-78
2022/08/20 02:11:33;;;;;;;;;;;;;;;;;;5044990;28;19933;-79
2022/08/20 02:14:19;;;;;;;;;;;;;;;;;;5038805;28;19921;-79
2022/08/20 02:17:06;;;;;;;;;;;;;;;;;;5043064;28;19915;-79
2022/08/20 02:19:52;;;;;;;;;;;;;;;;;;5041025;28;20325;-79
2022/08/20 02:22:39;;;;;;;;;;;;;;;;;;5046559;28;19917;-79
2022/08/20 02:25:25;;;;;;;;;;;;;;;;;;5046190;28;19915;-78
2022/08/20 02:28:12;;;;;;;;;;;;;;;;;;5043828;28;19971;-78
2022/08/20 02:31:00;;;;;;;;;;;;;;;;;;5038376;28;19917;-78
2022/08/20 02:33:46;;;;;;;;;;;;;;;;;;5044194;28;19921;-78
2022/08/20 02:36:35;;;;;;;;;;;;;;;;;;5026675;28;19913;-78
2022/08/20 02:39:21;;;;;;;;;;;;;;;;;;5040190;28;20552;-78
2022/08/20 02:42:08;;;;;;;;;;;;;;;;;;5044983;28;19915;-76
2022/08/20 02:44:56;;;;;;;;;;;;;;;;;;5038515;28;19915;-79
2022/08/20 02:47:44;;;;;;;;;;;;;;;;;;5044332;28;19923;-79
2022/08/20 02:50:30;;;;;;;;;;;;;;;;;;5042503;28;19979;-78
2022/08/20 02:53:17;;;;;;;;;;;;;;;;;;5046903;28;19940;-78
2022/08/20 02:56:03;;;;;;;;;;;;;;;;;;5047009;28;20253;-78
2022/08/20 02:58:50;;;;;;;;;;;;;;;;;;5046610;28;19917;-79
2022/08/20 03:01:37;;;;;;;;;;;;;;;;;;5050272;28;19913;-78
2022/08/20 03:04:23;;;;;;;;;;;;;;;;;;5043274;28;20356;-78
2022/08/20 03:07:10;;;;;;;;;;;;;;;;;;5047356;28;19916;-79
2022/08/20 03:09:56;;;;;;;;;;;;;;;;;;5047473;28;20483;-79
2022/08/20 03:12:43;;;;;;;;;;;;;;;;;;5039974;28;19936;-78
2022/08/20 03:15:39;;;;;;;;;;;;;;;;;;5042762;28;19925;-78
2022/08/20 03:18:25;;;;;;;;;;;;;;;;;;5045751;28;20284;-77
2022/08/20 03:21:12;;;;;;;;;;;;;;;;;;5046547;28;19913;-78
2022/08/20 03:23:58;;;;;;;;;;;;;;;;;;5050659;28;19919;-79
2022/08/20 03:26:45;;;;;;;;;;;;;;;;;;5047878;28;19923;-78
2022/08/20 03:29:37;;;;;;;;;;;;;;;;;;5048111;28;19924;-80
2022/08/20 03:32:33;;;;;;;;;;;;;;;;;;5049887;28;19921;-82
2022/08/20 03:35:22;;;;;;;;;;;;;;;;;;5028845;28;19932;-83
2022/08/20 03:38:21;;;;;;;;;;;;;;;;;;;;;
2022/08/20 03:41:08;;;;;;;;;;;;;;;;;;5045657;28;19915;-78
2022/08/20 03:43:55;;;;;;;;;;;;;;;;;;5029465;28;19913;-76
2022/08/20 03:46:41;;;;;;;;;;;;;;;;;;5048476;28;19913;-78
2022/08/20 03:49:28;;;;;;;;;;;;;;;;;;5039049;28;19917;-79
2022/08/20 03:52:16;;;;;;;;;;;;;;;;;;5048390;28;20377;-78
2022/08/20 03:55:02;;;;;;;;;;;;;;;;;;5035179;28;19927;-80
2022/08/20 03:57:50;;;;;;;;;;;;;;;;;;5047376;28;19919;-78
2022/08/20 04:00:37;;;;;;;;;;;;;;;;;;5048013;28;19913;-81
2022/08/20 04:03:23;;;;;;;;;;;;;;;;;;5039426;28;19920;-79
2022/08/20 04:06:10;;;;;;;;;;;;;;;;;;5034951;28;19928;-77
2022/08/20 04:08:56;;;;;;;;;;;;;;;;;;5046007;28;20431;-80
2022/08/20 04:11:46;;;;;;;;;;;;;;;;;;5027926;28;19955;-77
2022/08/20 04:14:35;;;;;;;;;;;;;;;;;;5048948;28;19920;-78
2022/08/20 04:17:22;;;;;;;;;;;;;;;;;;5042672;28;20387;-78
2022/08/20 04:20:08;;;;;;;;;;;;;;;;;;5032783;28;19912;-81
2022/08/20 04:22:55;;;;;;;;;;;;;;;;;;5043896;28;19909;-78
2022/08/20 04:25:41;;;;;;;;;;;;;;;;;;5047012;28;19913;-78
2022/08/20 04:28:28;;;;;;;;;;;;;;;;;;5031347;28;19921;-78
2022/08/20 04:31:16;;;;;;;;;;;;;;;;;;5042655;28;19920;-78
2022/08/20 04:34:03;;;;;;;;;;;;;;;;;;5047345;28;19924;-79
2022/08/20 04:36:49;;;;;;;;;;;;;;;;;;5043487;28;19921;-79
2022/08/20 04:39:36;;;;;;;;;;;;;;;;;;5045913;28;19916;-79
2022/08/20 04:42:22;;;;;;;;;;;;;;;;;;5049101;28;19917;-78
2022/08/20 04:45:08;;;;;;;;;;;;;;;;;;5044735;28;19909;-79
2022/08/20 04:47:55;;;;;;;;;;;;;;;;;;5043188;28;19913;-79
2022/08/20 04:50:41;;;;;;;;;;;;;;;;;;5048714;28;19917;-79
2022/08/20 04:53:28;;;;;;;;;;;;;;;;;;5041301;28;20292;-78
2022/08/20 04:56:14;;;;;;;;;;;;;;;;;;5043724;28;19916;-78
2022/08/20 04:59:01;;;;;;;;;;;;;;;;;;5043936;28;20387;-78
2022/08/20 05:01:47;;;;;;;;;;;;;;;;;;5047729;28;19920;-79
2022/08/20 05:04:34;;;;;;;;;;;;;;;;;;5042749;28;19936;-79
2022/08/20 05:07:20;;;;;;;;;;;;;;;;;;5046884;28;19909;-79
2022/08/20 05:10:07;;;;;;;;;;;;;;;;;;5039706;28;19913;-79
2022/08/20 05:12:53;;;;;;;;;;;;;;;;;;5040749;28;20305;-76
2022/08/20 05:15:40;;;;;;;;;;;;;;;;;;5034552;28;19931;-76
2022/08/20 05:18:26;;;;;;;;;;;;;;;;;;5045839;28;19913;-77
2022/08/20 05:21:12;;;;;;;;;;;;;;;;;;5047982;28;19913;-76
2022/08/20 05:23:59;;;;;;;;;;;;;;;;;;5049200;28;19908;-78
2022/08/20 05:26:45;;;;;;;;;;;;;;;;;;5042095;28;19916;-79
2022/08/20 05:29:32;;;;;;;;;;;;;;;;;;5046863;28;19924;-78
2022/08/20 05:32:19;;;;;;;;;;;;;;;;;;5044932;28;19932;-78
2022/08/20 05:35:06;;;;;;;;;;;;;;;;;;5045655;28;19932;-79
2022/08/20 05:37:53;;;;;;;;;;;;;;;;;;5028571;28;19915;-78
2022/08/20 05:40:39;;;;;;;;;;;;;;;;;;5045395;28;19912;-80
2022/08/20 05:43:26;;;;;;;;;;;;;;;;;;5041616;28;19923;-78
2022/08/20 05:46:15;;;;;;;;;;;;;;;;;;5046464;28;19917;-78
2022/08/20 05:49:01;;;;;;;;;;;;;;;;;;5040630;28;19913;-80
2022/08/20 05:51:48;;;;;;;;;;;;;;;;;;5047113;28;19920;-79
2022/08/20 05:54:36;;;;;;;;;;;;;;;;;;5042438;28;19920;-78
2022/08/20 05:57:23;;;;;;;;;;;;;;;;;;5045538;28;20292;-79
2022/08/20 06:00:09;;;;;;;;;;;;;;;;;;5039814;28;20128;-78
2022/08/20 06:06:01;;;;;;;;;;;;;;;;;;5039064;28;19923;-79
2022/08/20 06:08:48;;;;;;;;;;;;;;;;;;5046032;28;19920;-79
2022/08/20 06:11:35;;;;;;;;;;;;;;;;;;5031097;28;19916;-79
2022/08/20 06:14:21;;;;;;;;;;;;;;;;;;5046636;28;19921;-78
2022/08/20 06:17:07;;;;;;;;;;;;;;;;;;5046320;28;19919;-78
2022/08/20 06:19:55;;;;;;;;;;;;;;;;;;5042522;28;20304;-78
2022/08/20 06:22:41;;;;;;;;;;;;;;;;;;5045484;28;19912;-77
2022/08/20 06:25:28;;;;;;;;;;;;;;;;;;5044796;28;19916;-77
2022/08/20 06:28:14;;;;;;;;;;;;;;;;;;5042898;28;19919;-78
2022/08/20 06:31:01;;;;;;;;;;;;;;;;;;5047673;28;20369;-79
2022/08/20 06:33:48;;;;;;;;;;;;;;;;;;5044214;28;19917;-78
2022/08/20 06:36:34;;;;;;;;;;;;;;;;;;5042748;28;19917;-78
2022/08/20 06:39:21;;;;;;;;;;;;;;;;;;5037425;28;19916;-78
2022/08/20 06:42:07;;;;;;;;;;;;;;;;;;5049240;28;19908;-78
2022/08/20 06:44:54;;;;;;;;;;;;;;;;;;5047356;28;19916;-78
2022/08/20 06:47:40;;;;;;;;;;;;;;;;;;5048494;28;19985;-78
2022/08/20 06:50:27;;;;;;;;;;;;;;;;;;5050695;28;19913;-79
2022/08/20 06:53:13;;;;;;;;;;;;;;;;;;5050939;28;19924;-80
2022/08/20 06:56:00;;;;;;;;;;;;;;;;;;5030302;28;19921;-79
2022/08/20 06:58:46;;;;;;;;;;;;;;;;;;5046680;28;19935;-79
2022/08/20 07:01:33;;;;;;;;;;;;;;;;;;5045440;28;19932;-80
2022/08/20 07:04:19;;;;;;;;;;;;;;;;;;5033160;28;19917;-79
2022/08/20 07:07:06;;;;;;;;;;;;;;;;;;5046674;28;19920;-79
2022/08/20 07:09:52;;;;;;;;;;;;;;;;;;5048571;28;19921;-77
2022/08/20 07:12:39;;;;;;;;;;;;;;;;;;5046382;28;19928;-78
2022/08/20 07:15:25;;;;;;;;;;;;;;;;;;5046861;28;19984;-79
2022/08/20 07:18:12;;;;;;;;;;;;;;;;;;5039699;28;19920;-78
2022/08/20 07:20:59;;;;;;;;;;;;;;;;;;5045171;28;20336;-79
2022/08/20 07:23:47;;;;;;;;;;;;;;;;;;5046418;28;19916;-78
2022/08/20 07:26:34;;;;;;;;;;;;;;;;;;5048653;28;19909;-80
2022/08/20 07:29:20;;;;;;;;;;;;;;;;;;5033302;28;20365;-78
2022/08/20 07:35:12;;;;;;;;;;;;;;;;;;5044188;28;19959;-78
2022/08/20 07:37:58;;;;;;;;;;;;;;;;;;5046683;28;19920;-78
2022/08/20 07:40:47;;;;;;;;;;;;;;;;;;5043687;28;19913;-77
2022/08/20 07:43:34;;;;;;;;;;;;;;;;;;5048566;28;19913;-79
2022/08/20 07:46:20;;;;;;;;;;;;;;;;;;5044885;28;20542;-78
2022/08/20 07:49:08;;;;;;;;;;;;;;;;;;5047162;28;19912;-78
2022/08/20 07:51:54;;;;;;;;;;;;;;;;;;5048750;28;19909;-79
2022/08/20 07:54:42;;;;;;;;;;;;;;;;;;5047351;28;19929;-79
2022/08/20 07:57:28;;;;;;;;;;;;;;;;;;5047721;28;19913;-78
2022/08/20 08:00:15;;;;;;;;;;;;;;;;;;5043475;28;19909;-79
2022/08/20 08:03:01;;;;;;;;;;;;;;;;;;5045978;28;19915;-78
2022/08/20 08:05:48;;;;;;;;;;;;;;;;;;5029492;28;20617;-78
2022/08/20 08:08:35;;;;;;;;;;;;;;;;;;5048773;28;19909;-78
2022/08/20 08:11:22;;;;;;;;;;;;;;;;;;5043179;28;20391;-78
2022/08/20 08:14:08;;;;;;;;;;;;;;;;;;5032648;28;20395;-78
2022/08/20 08:16:56;;;;;;;;;;;;;;;;;;5043262;28;19917;-77
2022/08/20 08:19:42;;;;;;;;;;;;;;;;;;5047850;28;19913;-78
2022/08/20 08:22:31;;;;;;;;;;;;;;;;;;5043890;28;20372;-78
2022/08/20 08:25:18;;;;;;;;;;;;;;;;;;5045645;28;19921;-78
2022/08/20 08:28:04;;;;;;;;;;;;;;;;;;5044579;28;20312;-78
2022/08/20 08:30:51;;;;;;;;;;;;;;;;;;5044985;28;20004;-78
2022/08/20 08:33:39;;;;;;;;;;;;;;;;;;5047869;28;19916;-79
2022/08/20 08:36:26;;;;;;;;;;;;;;;;;;5043470;28;19927;-78
2022/08/20 08:39:12;;;;;;;;;;;;;;;;;;5029599;28;19924;-79
2022/08/20 08:41:59;;;;;;;;;;;;;;;;;;5045819;28;19908;-79
2022/08/20 08:44:45;;;;;;;;;;;;;;;;;;5046545;28;19909;-80
2022/08/20 08:47:34;;;;;;;;;;;;;;;;;;5045275;28;20727;-79
2022/08/20 08:50:21;;;;;;;;;;;;;;;;;;5046340;28;19928;-79
2022/08/20 08:53:08;;;;;;;;;;;;;;;;;;5030523;28;19936;-79
2022/08/20 08:55:54;;;;;;;;;;;;;;;;;;5042837;28;20912;-82
2022/08/20 08:58:43;;;;;;;;;;;;;;;;;;5043323;28;19913;-79
2022/08/20 09:01:29;;;;;;;;;;;;;;;;;;5045887;28;19920;-79
2022/08/20 09:04:16;;;;;;;;;;;;;;;;;;5045466;28;19913;-79
2022/08/20 09:07:03;;;;;;;;;;;;;;;;;;5042338;28;19913;-78
2022/08/20 09:09:49;;;;;;;;;;;;;;;;;;5045753;28;19909;-78
2022/08/20 09:12:36;;;;;;;;;;;;;;;;;;5040651;28;19920;-79
2022/08/20 09:15:22;;;;;;;;;;;;;;;;;;5044680;28;19925;-78
2022/08/20 09:18:09;;;;;;;;;;;;;;;;;;5031537;28;19919;-79
2022/08/20 09:20:55;;;;;;;;;;;;;;;;;;5045320;28;19928;-78
2022/08/20 09:23:42;;;;;;;;;;;;;;;;;;5042522;28;20398;-78
2022/08/20 09:26:28;;;;;;;;;;;;;;;;;;5044570;28;19920;-79
2022/08/20 09:29:15;;;;;;;;;;;;;;;;;;5043233;28;20361;-78
2022/08/20 09:32:01;;;;;;;;;;;;;;;;;;5038743;28;19912;-78
2022/08/20 09:34:50;;;;;;;;;;;;;;;;;;5040255;28;19929;-81
2022/08/20 09:37:37;;;;;;;;;;;;;;;;;;5034714;28;20296;-87
2022/08/20 09:40:23;;;;;;;;;;;;;;;;;;5042884;28;19916;-85
2022/08/20 09:43:10;;;;;;;;;;;;;;;;;;5043291;28;19915;-88
2022/08/20 09:45:56;;;;;;;;;;;;;;;;;;5047594;28;19932;-76
2022/08/20 09:48:43;;;;;;;;;;;;;;;;;;5042781;28;19909;-82
2022/08/20 09:51:29;;;;;;;;;;;;;;;;;;5041024;28;19917;-80
2022/08/20 09:54:15;;;;;;;;;;;;;;;;;;5045018;28;19924;-78
2022/08/20 09:57:02;;;;;;;;;;;;;;;;;;5046552;28;19944;-77
2022/08/20 09:59:48;;;;;;;;;;;;;;;;;;5045036;28;19913;-75
2022/08/20 10:02:35;;;;;;;;;;;;;;;;;;5044133;28;19913;-75
2022/08/20 10:05:21;;;;;;;;;;;;;;;;;;5046320;28;19927;-75
2022/08/20 10:08:08;;;;;;;;;;;;;;;;;;5042780;28;19955;-77
2022/08/20 10:10:54;;;;;;;;;;;;;;;;;;5039326;28;19913;-73
2022/08/20 10:13:41;;;;;;;;;;;;;;;;;;5044643;28;19945;-73
2022/08/20 10:16:27;;;;;;;;;;;;;;;;;;5043325;28;19927;-74
2022/08/20 10:19:14;;;;;;;;;;;;;;;;;;5047488;28;19932;-72
2022/08/20 10:22:00;;;;;;;;;;;;;;;;;;5045445;28;19921;-73
2022/08/20 10:24:47;;;;;;;;;;;;;;;;;;5047781;28;19935;-73
2022/08/20 10:27:33;;;;;;;;;;;;;;;;;;5042367;28;19909;-74
2022/08/20 10:30:20;;;;;;;;;;;;;;;;;;5043088;28;19923;-72
2022/08/20 10:33:06;;;;;;;;;;;;;;;;;;5040232;28;19924;-72
2022/08/20 10:35:52;;;;;;;;;;;;;;;;;;5025464;28;19929;-73
2022/08/20 10:38:39;;;;;;;;;;;;;;;;;;5036355;28;20365;-72
2022/08/20 10:41:27;;;;;;;;;;;;;;;;;;5035892;28;19912;-73
2022/08/20 10:44:13;;;;;;;;;;;;;;;;;;5031787;28;20634;-74
2022/08/20 10:47:00;;;;;;;;;;;;;;;;;;5035470;28;19913;-72
2022/08/20 10:49:46;;;;;;;;;;;;;;;;;;5039230;28;20402;-73
2022/08/20 10:52:33;;;;;;;;;;;;;;;;;;5044240;28;19939;-73
2022/08/20 10:55:19;;;;;;;;;;;;;;;;;;5044804;28;19928;-73
2022/08/20 10:58:06;;;;;;;;;;;;;;;;;;5043893;28;19944;-74
2022/08/20 11:00:52;;;;;;;;;;;;;;;;;;5037786;28;19916;-72
2022/08/20 11:03:38;;;;;;;;;;;;;;;;;;5046533;28;19913;-72
2022/08/20 11:06:25;;;;;;;;;;;;;;;;;;5045561;28;19931;-73
2022/08/20 11:09:12;;;;;;;;;;;;;;;;;;5031375;28;19917;-73
2022/08/20 11:11:58;;;;;;;;;;;;;;;;;;5046797;28;19924;-73
2022/08/20 11:14:44;;;;;;;;;;;;;;;;;;5043060;28;19943;-73
2022/08/20 11:17:31;;;;;;;;;;;;;;;;;;5044985;28;19928;-74
2022/08/20 11:20:17;;;;;;;;;;;;;;;;;;5045862;28;19917;-74
2022/08/20 11:23:04;;;;;;;;;;;;;;;;;;5045469;28;19916;-73
2022/08/20 11:25:50;;;;;;;;;;;;;;;;;;5052855;28;19917;-75
2022/08/20 11:28:37;;;;;;;;;;;;;;;;;;5047047;28;19917;-75
2022/08/20 11:31:23;;;;;;;;;;;;;;;;;;5047681;28;20265;-73
2022/08/20 11:34:10;;;;;;;;;;;;;;;;;;5048196;28;19920;-73
2022/08/20 11:36:57;;;;;;;;;;;;;;;;;;5044107;28;19909;-75
2022/08/20 11:39:44;;;;;;;;;;;;;;;;;;5046562;28;20297;-74
2022/08/20 11:42:30;;;;;;;;;;;;;;;;;;5047917;28;19999;-73
2022/08/20 11:45:17;;;;;;;;;;;;;;;;;;5049516;28;19940;-73
2022/08/20 11:48:03;;;;;;;;;;;;;;;;;;5046047;28;19945;-73
2022/08/20 11:50:50;;;;;;;;;;;;;;;;;;5048026;28;20312;-72
2022/08/20 11:53:36;;;;;;;;;;;;;;;;;;5047906;28;20639;-73
2022/08/20 11:56:23;;;;;;;;;;;;;;;;;;5046114;28;19936;-74
2022/08/20 11:59:09;;;;;;;;;;;;;;;;;;5047322;28;20281;-74
2022/08/20 12:01:57;;;;;;;;;;;;;;;;;;5046751;28;19919;-74
2022/08/20 12:04:43;;;;;;;;;;;;;;;;;;5046749;28;19919;-72
2022/08/20 12:07:30;;;;;;;;;;;;;;;;;;5030067;28;20304;-72
2022/08/20 12:10:16;;;;;;;;;;;;;;;;;;5048471;28;19916;-73
2022/08/20 12:13:03;;;;;;;;;;;;;;;;;;5043561;28;19932;-74
2022/08/20 12:15:49;;;;;;;;;;;;;;;;;;5027235;28;19967;-73
2022/08/20 12:18:36;;;;;;;;;;;;;;;;;;5044293;28;20003;-73
2022/08/20 12:21:22;;;;;;;;;;;;;;;;;;5046855;28;19923;-73
2022/08/20 12:24:09;;;;;;;;;;;;;;;;;;5048708;28;20395;-73
2022/08/20 12:26:55;;;;;;;;;;;;;;;;;;5047513;28;19916;-73
2022/08/20 12:29:42;;;;;;;;;;;;;;;;;;5045231;28;19923;-73
2022/08/20 12:32:28;;;;;;;;;;;;;;;;;;5045190;28;20428;-73
2022/08/20 12:35:15;;;;;;;;;;;;;;;;;;5043332;28;19923;-73
2022/08/20 12:38:01;;;;;;;;;;;;;;;;;;5044425;28;19935;-72
2022/08/20 12:40:47;;;;;;;;;;;;;;;;;;5046673;28;19913;-74
2022/08/20 12:43:34;;;;;;;;;;;;;;;;;;5043090;28;20019;-74
2022/08/20 12:46:20;;;;;;;;;;;;;;;;;;5044058;28;19917;-73
2022/08/20 12:49:07;;;;;;;;;;;;;;;;;;5048547;28;19917;-73
2022/08/20 12:51:53;;;;;;;;;;;;;;;;;;5043688;28;19936;-72
2022/08/20 12:54:40;;;;;;;;;;;;;;;;;;5043353;28;19917;-73
2022/08/20 12:57:27;;;;;;;;;;;;;;;;;;5046509;28;19917;-74
2022/08/20 13:00:14;;;;;;;;;;;;;;;;;;5041947;28;20294;-74
2022/08/20 13:03:00;;;;;;;;;;;;;;;;;;5043444;28;19919;-72
2022/08/20 13:05:47;;;;;;;;;;;;;;;;;;5041804;28;19923;-73
2022/08/20 13:08:33;;;;;;;;;;;;;;;;;;5042903;28;19913;-73
2022/08/20 13:11:20;;;;;;;;;;;;;;;;;;5046111;28;19927;-73
2022/08/20 13:14:06;;;;;;;;;;;;;;;;;;5045035;28;19924;-72
2022/08/20 13:16:55;;;;;;;;;;;;;;;;;;5044594;28;21555;-73
2022/08/20 13:19:43;;;;;;;;;;;;;;;;;;5042158;28;19924;-73
2022/08/20 13:22:30;;;;;;;;;;;;;;;;;;5041498;28;19935;-70
2022/08/20 13:25:16;;;;;;;;;;;;;;;;;;5045883;28;19913;-73
2022/08/20 13:28:03;;;;;;;;;;;;;;;;;;5042417;28;19939;-72
2022/08/20 13:30:49;;;;;;;;;;;;;;;;;;5041730;28;19919;-72
2022/08/20 13:33:36;;;;;;;;;;;;;;;;;;5041928;28;19920;-73
2022/08/20 13:36:22;;;;;;;;;;;;;;;;;;5041025;28;20527;-72
2022/08/20 13:39:09;;;;;;;;;;;;;;;;;;5044054;28;19913;-73
2022/08/20 13:41:55;;;;;;;;;;;;;;;;;;5046624;28;19939;-72
2022/08/20 13:44:41;;;;;;;;;;;;;;;;;;5042507;28;19917;-72
2022/08/20 13:47:28;;;;;;;;;;;;;;;;;;5044082;28;19916;-72
2022/08/20 13:50:15;;;;;;;;;;;;;;;;;;5040504;28;20044;-72
2022/08/20 13:53:01;;;;;;;;;;;;;;;;;;5043844;28;20154;-71
2022/08/20 13:55:48;;;;;;;;;;;;;;;;;;5044644;28;19921;-72
2022/08/20 13:58:34;;;;;;;;;;;;;;;;;;5045559;28;19920;-72
2022/08/20 14:01:21;;;;;;;;;;;;;;;;;;5041948;28;19924;-72
2022/08/20 14:04:07;;;;;;;;;;;;;;;;;;5031193;28;19916;-72
2022/08/20 14:06:54;;;;;;;;;;;;;;;;;;5045357;28;20353;-73
2022/08/20 14:09:40;;;;;;;;;;;;;;;;;;5046915;28;19920;-72
2022/08/20 14:12:27;;;;;;;;;;;;;;;;;;5045468;28;20512;-72
2022/08/20 14:15:13;;;;;;;;;;;;;;;;;;5044988;28;19917;-73
2022/08/20 14:18:00;;;;;;;;;;;;;;;;;;5043792;28;19916;-72
2022/08/20 14:20:46;;;;;;;;;;;;;;;;;;5045632;28;19917;-73
2022/08/20 14:23:33;;;;;;;;;;;;;;;;;;5040016;28;19924;-72
2022/08/20 14:26:19;;;;;;;;;;;;;;;;;;5044374;28;20427;-72
2022/08/20 14:29:05;;;;;;;;;;;;;;;;;;5045330;28;19912;-72
2022/08/20 14:31:52;;;;;;;;;;;;;;;;;;5036421;28;20675;-73
2022/08/20 14:34:38;;;;;;;;;;;;;;;;;;5045780;28;19919;-71
2022/08/20 14:37:25;;;;;;;;;;;;;;;;;;5039248;28;19924;-72
2022/08/20 14:40:11;;;;;;;;;;;;;;;;;;5042708;28;19923;-73
2022/08/20 14:42:58;;;;;;;;;;;;;;;;;;5043548;28;19923;-71
2022/08/20 14:45:44;;;;;;;;;;;;;;;;;;5029884;28;19936;-71
2022/08/20 14:48:31;;;;;;;;;;;;;;;;;;5042611;28;19913;-71
2022/08/20 14:51:17;;;;;;;;;;;;;;;;;;5042330;28;19932;-71
2022/08/20 14:54:04;;;;;;;;;;;;;;;;;;5044319;28;20284;-71
2022/08/20 14:56:50;;;;;;;;;;;;;;;;;;5048974;28;19921;-71
2022/08/20 14:59:37;;;;;;;;;;;;;;;;;;5047298;28;20641;-71
2022/08/20 15:02:23;;;;;;;;;;;;;;;;;;5043730;28;19913;-72
2022/08/20 15:05:10;;;;;;;;;;;;;;;;;;5046574;28;20285;-73
2022/08/20 15:07:57;;;;;;;;;;;;;;;;;;5044946;28;19919;-72
2022/08/20 15:10:43;;;;;;;;;;;;;;;;;;5045327;28;19939;-71
2022/08/20 15:13:30;;;;;;;;;;;;;;;;;;5048298;28;19932;-72
2022/08/20 15:16:16;;;;;;;;;;;;;;;;;;5046584;28;19924;-74
2022/08/20 15:19:03;;;;;;;;;;;;;;;;;;5043752;28;19916;-73
2022/08/20 15:21:49;;;;;;;;;;;;;;;;;;5045528;28;19912;-72
2022/08/20 15:24:36;;;;;;;;;;;;;;;;;;5045467;28;19917;-71
2022/08/20 15:27:22;;;;;;;;;;;;;;;;;;5047183;28;20030;-72
2022/08/20 15:30:09;;;;;;;;;;;;;;;;;;5043743;28;19920;-72
2022/08/20 15:32:55;;;;;;;;;;;;;;;;;;5047403;28;19916;-71
2022/08/20 15:35:42;;;;;;;;;;;;;;;;;;5043972;28;20292;-71
2022/08/20 15:38:29;;;;;;;;;;;;;;;;;;5044824;28;19916;-72
2022/08/20 15:41:15;;;;;;;;;;;;;;;;;;5047852;28;19913;-72
2022/08/20 15:44:02;;;;;;;;;;;;;;;;;;5033418;28;20018;-72
2022/08/20 15:46:48;;;;;;;;;;;;;;;;;;5040778;28;19917;-72
2022/08/20 15:49:35;;;;;;;;;;;;;;;;;;5047347;28;19921;-72
2022/08/20 15:52:21;;;;;;;;;;;;;;;;;;5043562;28;19913;-72
2022/08/20 15:55:08;;;;;;;;;;;;;;;;;;5041085;28;19920;-71
2022/08/20 15:57:54;;;;;;;;;;;;;;;;;;5046319;28;19913;-73
2022/08/20 16:00:41;;;;;;;;;;;;;;;;;;5044951;28;19928;-71
2022/08/20 16:03:27;;;;;;;;;;;;;;;;;;5044864;28;19909;-72
2022/08/20 16:06:14;;;;;;;;;;;;;;;;;;5043106;28;19919;-72
2022/08/20 16:09:00;;;;;;;;;;;;;;;;;;5044650;28;20657;-72
2022/08/20 16:11:47;;;;;;;;;;;;;;;;;;5046713;28;19927;-72
2022/08/20 16:14:33;;;;;;;;;;;;;;;;;;5047228;28;19916;-71
2022/08/20 16:17:20;;;;;;;;;;;;;;;;;;5044800;28;19924;-71
2022/08/20 16:20:10;;;;;;;;;;;;;;;;;;5045058;28;19916;-72
2022/08/20 16:22:56;;;;;;;;;;;;;;;;;;5042553;28;19909;-72
2022/08/20 16:25:43;;;;;;;;;;;;;;;;;;5047778;28;19916;-73
2022/08/20 16:28:31;;;;;;;;;;;;;;;;;;5045855;28;20440;-72
2022/08/20 16:31:17;;;;;;;;;;;;;;;;;;5047452;28;19913;-72
2022/08/20 16:34:04;;;;;;;;;;;;;;;;;;5048659;28;19909;-72
2022/08/20 16:36:50;;;;;;;;;;;;;;;;;;5042005;28;19924;-72
2022/08/20 16:39:37;;;;;;;;;;;;;;;;;;5043849;28;19944;-72
2022/08/20 16:42:23;;;;;;;;;;;;;;;;;;5045677;28;20498;-72
2022/08/20 16:45:10;;;;;;;;;;;;;;;;;;5045710;28;19920;-71
2022/08/20 16:47:56;;;;;;;;;;;;;;;;;;5041820;28;19913;-71
2022/08/20 16:50:43;;;;;;;;;;;;;;;;;;5042139;28;19920;-72
2022/08/20 16:53:29;;;;;;;;;;;;;;;;;;5045373;28;19917;-72
2022/08/20 16:56:15;;;;;;;;;;;;;;;;;;5041314;28;19924;-73
2022/08/20 16:59:03;;;;;;;;;;;;;;;;;;5048531;28;19923;-72
2022/08/20 17:01:49;;;;;;;;;;;;;;;;;;5043225;28;19912;-72
2022/08/20 17:04:36;;;;;;;;;;;;;;;;;;5043617;28;19920;-71
2022/08/20 17:07:22;;;;;;;;;;;;;;;;;;5040511;28;20400;-71
2022/08/20 17:10:09;;;;;;;;;;;;;;;;;;5038673;28;19917;-72
2022/08/20 17:12:55;;;;;;;;;;;;;;;;;;5041448;28;20322;-72
2022/08/20 17:15:42;;;;;;;;;;;;;;;;;;5037999;28;20297;-71
2022/08/20 17:18:28;;;;;;;;;;;;;;;;;;5042640;28;19916;-71
2022/08/20 17:21:15;;;;;;;;;;;;;;;;;;5052958;28;19938;-70
2022/08/20 17:24:02;;;;;;;;;;;;;;;;;;5045597;28;20026;-71
2022/08/20 17:26:48;;;;;;;;;;;;;;;;;;5023574;28;19913;-70
2022/08/20 17:29:37;;;;;;;;;;;;;;;;;;5047986;28;19919;-73
2022/08/20 17:32:23;;;;;;;;;;;;;;;;;;5044449;28;19913;-73
2022/08/20 17:35:10;;;;;;;;;;;;;;;;;;5040226;28;19915;-75
2022/08/20 17:37:56;;;;;;;;;;;;;;;;;;5045277;28;19961;-74
2022/08/20 17:40:44;;;;;;;;;;;;;;;;;;5045551;28;19917;-74
2022/08/20 17:43:31;;;;;;;;;;;;;;;;;;5044607;28;19917;-74
2022/08/20 17:46:17;;;;;;;;;;;;;;;;;;5045624;28;19924;-73
2022/08/20 17:49:04;;;;;;;;;;;;;;;;;;5037029;28;19917;-74
2022/08/20 17:51:50;;;;;;;;;;;;;;;;;;5045432;28;19913;-73
2022/08/20 17:54:37;;;;;;;;;;;;;;;;;;5029477;28;19920;-74
2022/08/20 17:57:23;;;;;;;;;;;;;;;;;;5045023;28;19924;-74
2022/08/20 18:00:13;;;;;;;;;;;;;;;;;;5044456;28;19913;-73
2022/08/20 18:02:59;;;;;;;;;;;;;;;;;;5043488;28;20402;-73
2022/08/20 18:05:46;;;;;;;;;;;;;;;;;;5044016;28;20005;-73
2022/08/20 18:08:32;;;;;;;;;;;;;;;;;;5045737;28;19923;-73
2022/08/20 18:11:19;;;;;;;;;;;;;;;;;;5041894;28;19913;-73
2022/08/20 18:14:05;;;;;;;;;;;;;;;;;;5043818;28;19921;-74
2022/08/20 18:16:52;;;;;;;;;;;;;;;;;;5041783;28;20471;-73
2022/08/20 18:19:38;;;;;;;;;;;;;;;;;;5041930;28;19913;-74
2022/08/20 18:22:25;;;;;;;;;;;;;;;;;;5030810;28;20462;-76
2022/08/20 18:25:11;;;;;;;;;;;;;;;;;;5045221;28;19917;-74
2022/08/20 18:27:58;;;;;;;;;;;;;;;;;;5042564;28;19913;-76
2022/08/20 18:30:44;;;;;;;;;;;;;;;;;;5047931;28;19920;-75
2022/08/20 18:33:31;;;;;;;;;;;;;;;;;;5034925;28;19913;-78
2022/08/20 18:36:17;;;;;;;;;;;;;;;;;;5039309;28;19928;-78
2022/08/20 18:39:04;;;;;;;;;;;;;;;;;;5042398;28;19920;-78
2022/08/20 18:41:50;;;;;;;;;;;;;;;;;;5046334;28;19948;-75
2022/08/20 18:44:37;;;;;;;;;;;;;;;;;;5049038;28;19917;-75
2022/08/20 18:47:23;;;;;;;;;;;;;;;;;;5032787;28;19913;-76
2022/08/20 18:50:10;;;;;;;;;;;;;;;;;;5039011;28;19958;-76
2022/08/20 18:52:56;;;;;;;;;;;;;;;;;;5032808;28;20016;-78
2022/08/20 18:55:43;;;;;;;;;;;;;;;;;;5047361;28;19920;-79
2022/08/20 18:58:29;;;;;;;;;;;;;;;;;;5045411;28;19913;-77
2022/08/20 19:01:16;;;;;;;;;;;;;;;;;;5046498;28;19920;-75
2022/08/20 19:04:03;;;;;;;;;;;;;;;;;;5041105;28;19917;-73